createdAt,value
2018-01-06T00:00:49.272Z,7.40
2018-01-06T00:03:17.515Z,7.37
2018-01-06T00:05:44.901Z,8.03
2018-01-06T00:08:12.424Z,7.87
2018-01-06T00:10:39.891Z,8.10
2018-01-06T00:13:07.339Z,8.27
2018-01-06T00:15:34.852Z,7.63
2018-01-06T00:18:03.076Z,7.40
2018-01-06T00:20:30.496Z,8.20
2018-01-06T00:22:57.989Z,7.97
2018-01-06T00:25:25.428Z,8.53
2018-01-06T00:27:52.856Z,8.83
2018-01-06T00:30:21.067Z,8.67
2018-01-06T00:32:48.496Z,8.03
2018-01-06T00:35:15.924Z,8.80
2018-01-06T00:37:43.455Z,10.20
2018-01-06T00:40:11.005Z,10.27
2018-01-06T00:42:38.471Z,10.37
2018-01-06T00:45:05.913Z,8.30
2018-01-06T00:47:33.364Z,8.53
2018-01-06T00:50:00.833Z,8.43
2018-01-06T00:52:28.288Z,9.50
2018-01-06T00:54:55.754Z,9.60
2018-01-06T00:57:23.176Z,11.17
2018-01-06T00:59:50.604Z,12.37
2018-01-06T01:02:18.834Z,11.57
2018-01-06T01:04:46.292Z,12.47
2018-01-06T01:07:13.749Z,11.87
2018-01-06T01:09:41.198Z,11.03
2018-01-06T01:12:08.664Z,10.97
2018-01-06T01:14:36.104Z,10.87
2018-01-06T01:17:03.584Z,10.33
2018-01-06T01:19:31.018Z,11.93
2018-01-06T01:21:58.492Z,10.83
2018-01-06T01:24:25.957Z,11.03
2018-01-06T01:26:53.408Z,11.63
2018-01-06T01:29:20.847Z,11.40
2018-01-06T01:31:48.328Z,11.60
2018-01-06T01:34:15.753Z,12.33
2018-01-06T01:36:43.244Z,11.43
2018-01-06T01:39:10.685Z,11.40
2018-01-06T01:41:38.123Z,12.57
2018-01-06T01:44:05.550Z,12.40
2018-01-06T01:46:32.988Z,12.77
2018-01-06T01:49:00.422Z,12.23
2018-01-06T01:51:27.852Z,11.47
2018-01-06T01:53:55.302Z,13.63
2018-01-06T01:56:22.730Z,13.97
2018-01-06T01:58:50.254Z,12.10
2018-01-06T02:01:17.804Z,14.17
2018-01-06T02:03:45.238Z,14.93
2018-01-06T02:06:12.726Z,15.10
2018-01-06T02:08:40.167Z,15.87
2018-01-06T02:11:07.600Z,15.13
2018-01-06T02:13:35.025Z,16.77
2018-01-06T02:16:02.468Z,15.50
2018-01-06T02:18:29.912Z,15.60
2018-01-06T02:20:57.353Z,17.00
2018-01-06T02:23:24.825Z,15.40
2018-01-06T02:25:52.261Z,15.80
2018-01-06T02:28:19.733Z,16.10
2018-01-06T02:30:47.179Z,15.33
2018-01-06T02:33:14.673Z,14.27
2018-01-06T02:35:42.105Z,17.17
2018-01-06T02:38:09.550Z,17.77
2018-01-06T02:40:37.027Z,17.47
2018-01-06T02:43:04.464Z,18.73
2018-01-06T02:45:31.908Z,18.67
2018-01-06T02:47:59.347Z,20.03
2018-01-06T02:50:27.540Z,20.70
2018-01-06T02:52:54.988Z,20.60
2018-01-06T02:55:22.484Z,20.83
2018-01-06T02:57:49.905Z,21.27
2018-01-06T03:00:17.392Z,19.80
2018-01-06T03:02:44.856Z,21.10
2018-01-06T03:05:12.288Z,23.93
2018-01-06T03:07:39.764Z,24.17
2018-01-06T03:10:07.212Z,23.70
2018-01-06T03:12:34.684Z,25.53
2018-01-06T03:15:02.236Z,28.50
2018-01-06T03:17:29.672Z,26.77
2018-01-06T03:19:57.116Z,27.33
2018-01-06T03:22:25.329Z,29.67
2018-01-06T03:24:52.784Z,32.20
2018-01-06T03:27:20.217Z,26.80
2018-01-06T03:29:47.657Z,27.90
2018-01-06T03:32:15.857Z,29.43
2018-01-06T03:34:43.293Z,29.80
2018-01-06T03:37:11.604Z,30.87
2018-01-06T03:39:39.052Z,30.57
2018-01-06T03:42:06.488Z,32.03
2018-01-06T03:44:33.980Z,30.07
2018-01-06T03:47:01.413Z,28.93
2018-01-06T03:49:28.841Z,30.20
2018-01-06T03:51:57.057Z,29.13
2018-01-06T03:54:24.532Z,30.03
2018-01-06T03:56:51.996Z,29.53
2018-01-06T03:59:19.589Z,31.17
2018-01-06T04:01:47.788Z,30.87
2018-01-06T04:04:15.280Z,28.40
2018-01-06T04:06:42.832Z,26.50
2018-01-06T04:09:10.260Z,30.47
2018-01-06T04:11:37.692Z,33.33
2018-01-06T04:14:05.902Z,30.50
2018-01-06T04:16:33.380Z,28.33
2018-01-06T04:19:00.808Z,30.67
2018-01-06T04:21:28.253Z,31.00
2018-01-06T04:23:56.444Z,31.57
2018-01-06T04:26:23.887Z,32.03
2018-01-06T04:28:52.204Z,31.67
2018-01-06T04:31:19.657Z,33.20
2018-01-06T04:33:47.084Z,34.93
2018-01-06T04:36:14.576Z,33.43
2018-01-06T04:38:42.009Z,33.80
2018-01-06T04:41:09.440Z,32.93
2018-01-06T04:43:37.648Z,33.27
2018-01-06T04:46:05.080Z,35.27
2018-01-06T04:48:33.292Z,33.63
2018-01-06T04:51:00.744Z,32.90
2018-01-06T04:53:28.212Z,34.40
2018-01-06T04:55:55.649Z,27.67
2018-01-06T04:58:23.980Z,29.43
2018-01-06T05:00:51.508Z,32.90
2018-01-06T05:03:18.948Z,31.97
2018-01-06T05:05:46.389Z,33.77
2018-01-06T05:08:13.816Z,32.40
2018-01-06T05:10:41.310Z,33.30
2018-01-06T05:13:08.765Z,31.87
2018-01-06T05:15:36.208Z,33.43
2018-01-06T05:18:03.628Z,32.73
2018-01-06T05:20:31.873Z,28.70
2018-01-06T05:22:59.418Z,36.27
2018-01-06T05:25:26.844Z,30.47
2018-01-06T05:27:54.296Z,34.90
2018-01-06T05:30:21.785Z,35.93
2018-01-06T05:32:49.217Z,32.17
2018-01-06T05:35:16.669Z,34.10
2018-01-06T05:37:44.864Z,35.07
2018-01-06T05:40:12.291Z,36.20
2018-01-06T05:42:40.500Z,38.47
2018-01-06T05:45:07.932Z,35.33
2018-01-06T05:47:35.421Z,34.40
2018-01-06T05:50:02.880Z,38.57
2018-01-06T05:52:30.340Z,36.70
2018-01-06T05:54:57.764Z,36.17
2018-01-06T05:57:25.250Z,32.97
2018-01-06T05:59:52.680Z,35.93
2018-01-06T06:02:20.114Z,39.20
2018-01-06T06:04:48.343Z,38.17
2018-01-06T06:07:15.801Z,36.87
2018-01-06T06:09:43.343Z,38.03
2018-01-06T06:12:10.764Z,35.33
2018-01-06T06:14:38.993Z,38.83
2018-01-06T06:17:06.432Z,36.17
2018-01-06T06:19:33.872Z,34.70
2018-01-06T06:22:01.361Z,41.37
2018-01-06T06:24:28.810Z,37.03
2018-01-06T06:26:56.272Z,36.07
2018-01-06T06:29:23.700Z,40.23
2018-01-06T06:31:51.188Z,39.97
2018-01-06T06:34:18.633Z,40.93
2018-01-06T06:36:46.057Z,40.13
2018-01-06T06:39:14.264Z,37.60
2018-01-06T06:41:41.741Z,37.73
2018-01-06T06:44:09.177Z,38.17
2018-01-06T06:46:36.644Z,36.80
2018-01-06T06:49:04.104Z,37.13
2018-01-06T06:51:31.532Z,33.73
2018-01-06T06:53:59.025Z,35.87
2018-01-06T06:56:26.576Z,33.50
2018-01-06T06:58:54.017Z,34.47
2018-01-06T07:01:21.440Z,32.77
2018-01-06T07:03:49.652Z,38.77
2018-01-06T07:06:17.080Z,37.20
2018-01-06T07:08:45.300Z,37.30
2018-01-06T07:11:12.749Z,38.63
2018-01-06T07:13:40.190Z,37.70
2018-01-06T07:16:07.613Z,34.47
2018-01-06T07:18:35.829Z,33.63
2018-01-06T07:21:03.297Z,31.70
2018-01-06T07:23:30.758Z,33.17
2018-01-06T07:25:58.220Z,36.40
2018-01-06T07:28:25.661Z,34.63
2018-01-06T07:30:53.129Z,32.67
2018-01-06T07:33:20.584Z,35.33
2018-01-06T07:35:48.040Z,34.03
2018-01-06T07:38:15.473Z,33.73
2018-01-06T07:40:42.957Z,36.17
2018-01-06T07:43:10.412Z,36.37
2018-01-06T07:45:37.965Z,33.07
2018-01-06T07:48:05.436Z,33.60
2018-01-06T07:50:32.878Z,32.80
2018-01-06T07:53:00.360Z,32.90
2018-01-06T07:55:27.801Z,37.40
2018-01-06T07:57:55.236Z,34.73
2018-01-06T08:00:22.672Z,32.03
2018-01-06T08:02:50.883Z,34.70
2018-01-06T08:05:18.308Z,32.23
2018-01-06T08:07:45.744Z,29.17
2018-01-06T08:10:13.182Z,31.57
2018-01-06T08:12:40.617Z,29.93
2018-01-06T08:15:08.053Z,31.03
2018-01-06T08:17:35.529Z,25.67
2018-01-06T08:20:02.987Z,28.93
2018-01-06T08:22:30.393Z,28.00
2018-01-06T08:24:58.712Z,27.33
2018-01-06T08:27:26.127Z,24.40
2018-01-06T08:29:55.180Z,26.30
2018-01-06T08:32:22.632Z,25.40
2018-01-06T08:34:50.094Z,27.50
2018-01-06T08:37:17.516Z,25.27
2018-01-06T08:39:44.956Z,24.63
2018-01-06T08:42:13.176Z,25.37
2018-01-06T08:44:40.628Z,25.30
2018-01-06T08:47:08.201Z,24.53
2018-01-06T08:49:35.649Z,24.63
2018-01-06T08:52:03.092Z,23.80
2018-01-06T08:54:30.528Z,23.33
2018-01-06T08:56:57.961Z,25.83
2018-01-06T08:59:26.193Z,22.13
2018-01-06T09:01:53.652Z,21.57
2018-01-06T09:04:21.121Z,22.43
2018-01-06T09:06:48.572Z,23.10
2018-01-06T09:09:16.040Z,22.20
2018-01-06T09:11:43.581Z,22.77
2018-01-06T09:14:11.035Z,22.93
2018-01-06T09:16:38.500Z,20.97
2018-01-06T09:19:05.953Z,23.57
2018-01-06T09:21:33.384Z,23.40
2018-01-06T09:24:00.828Z,23.13
2018-01-06T09:26:29.045Z,21.57
2018-01-06T09:28:56.476Z,21.80
2018-01-06T09:31:23.929Z,22.47
2018-01-06T09:33:51.423Z,22.93
2018-01-06T09:36:18.846Z,23.97
2018-01-06T09:38:46.284Z,23.00
2018-01-06T09:41:14.480Z,23.20
2018-01-06T09:43:42.007Z,24.00
2018-01-06T09:46:09.548Z,23.47
2018-01-06T09:48:37.080Z,25.17
2018-01-06T09:51:04.528Z,24.47
2018-01-06T09:53:31.952Z,23.27
2018-01-06T09:56:00.169Z,24.67
2018-01-06T09:58:27.615Z,23.67
2018-01-06T10:00:55.057Z,22.80
2018-01-06T10:03:22.488Z,23.10
2018-01-06T10:05:50.693Z,24.23
2018-01-06T10:08:18.140Z,24.57
2018-01-06T10:10:45.632Z,23.50
2018-01-06T10:13:13.080Z,23.80
2018-01-06T10:15:40.516Z,22.83
2018-01-06T10:18:07.959Z,23.53
2018-01-06T10:20:36.159Z,21.10
2018-01-06T10:23:03.611Z,20.57
2018-01-06T10:25:31.052Z,23.87
2018-01-06T10:27:58.545Z,20.67
2018-01-06T10:30:25.990Z,22.27
2018-01-06T10:32:53.426Z,22.00
2018-01-06T10:35:20.889Z,22.90
2018-01-06T10:37:48.372Z,20.43
2018-01-06T10:40:15.822Z,20.90
2018-01-06T10:42:43.262Z,21.00
2018-01-06T10:45:10.697Z,20.30
2018-01-06T10:47:38.165Z,24.03
2018-01-06T10:50:05.603Z,24.10
2018-01-06T10:52:33.070Z,20.07
2018-01-06T10:55:00.492Z,20.47
2018-01-06T10:57:28.698Z,20.63
2018-01-06T10:59:56.240Z,20.60
2018-01-06T11:02:23.680Z,20.33
2018-01-06T11:04:51.112Z,21.27
2018-01-06T11:07:19.324Z,22.63
2018-01-06T11:09:46.788Z,21.70
2018-01-06T11:12:14.263Z,20.93
2018-01-06T11:14:41.686Z,20.20
2018-01-06T11:17:09.127Z,23.47
2018-01-06T11:19:36.570Z,22.40
2018-01-06T11:22:04.781Z,21.90
2018-01-06T11:24:32.220Z,23.80
2018-01-06T11:26:59.646Z,23.57
2018-01-06T11:29:27.862Z,20.60
2018-01-06T11:31:55.301Z,22.23
2018-01-06T11:34:22.789Z,21.27
2018-01-06T11:36:50.234Z,21.53
2018-01-06T11:39:17.676Z,21.83
2018-01-06T11:41:45.160Z,21.43
2018-01-06T11:44:12.613Z,22.23
2018-01-06T11:46:40.045Z,21.67
2018-01-06T11:49:07.473Z,20.27
2018-01-06T11:51:35.711Z,21.27
2018-01-06T11:54:03.141Z,18.80
2018-01-06T11:56:30.622Z,20.40
2018-01-06T11:58:58.065Z,21.00
2018-01-06T12:01:25.532Z,20.90
2018-01-06T12:03:52.983Z,19.67
2018-01-06T12:06:20.449Z,20.33
2018-01-06T12:08:47.889Z,21.30
2018-01-06T12:11:15.329Z,20.50
2018-01-06T12:13:42.782Z,20.57
2018-01-06T12:16:10.981Z,22.07
2018-01-06T12:18:38.409Z,21.40
2018-01-06T12:21:06.628Z,22.67
2018-01-06T12:23:34.070Z,23.87
2018-01-06T12:26:01.508Z,24.13
2018-01-06T12:28:29.054Z,23.07
2018-01-06T12:30:57.286Z,22.07
2018-01-06T12:33:25.524Z,22.83
2018-01-06T12:35:52.973Z,22.43
2018-01-06T12:38:20.482Z,21.60
2018-01-06T12:40:47.912Z,23.10
2018-01-06T12:43:15.353Z,23.70
2018-01-06T12:45:42.836Z,23.03
2018-01-06T12:48:10.268Z,23.47
2018-01-06T12:50:37.755Z,23.43
2018-01-06T12:53:05.189Z,24.90
2018-01-06T12:55:32.615Z,24.77
2018-01-06T12:58:00.830Z,27.43
2018-01-06T13:00:31.153Z,26.90
2018-01-06T13:02:58.572Z,27.67
2018-01-06T13:05:26.785Z,26.60
2018-01-06T13:07:54.247Z,28.23
2018-01-06T13:10:21.705Z,30.13
2018-01-06T13:12:49.258Z,30.27
2018-01-06T13:15:16.730Z,29.13
2018-01-06T13:17:44.180Z,30.43
2018-01-06T13:20:11.644Z,33.17
2018-01-06T13:22:39.101Z,33.77
2018-01-06T13:25:07.341Z,28.30
2018-01-06T13:27:34.825Z,30.53
2018-01-06T13:30:02.261Z,32.17
2018-01-06T13:32:29.705Z,28.33
2018-01-06T13:34:57.163Z,29.93
2018-01-06T13:37:25.467Z,28.93
2018-01-06T13:39:52.880Z,30.00
2018-01-06T13:42:21.099Z,28.97
2018-01-06T13:44:48.568Z,27.57
2018-01-06T13:47:16.000Z,27.93
2018-01-06T13:49:43.448Z,27.63
2018-01-06T13:52:10.936Z,28.57
2018-01-06T13:54:38.393Z,28.20
2018-01-06T13:57:05.860Z,26.33
2018-01-06T13:59:33.293Z,26.30
2018-01-06T14:02:00.724Z,25.53
2018-01-06T14:04:28.934Z,27.33
2018-01-06T14:06:56.372Z,25.63
2018-01-06T14:09:23.829Z,26.60
2018-01-06T14:11:51.273Z,25.17
2018-01-06T14:14:19.513Z,23.50
2018-01-06T14:16:46.974Z,26.07
2018-01-06T14:19:14.516Z,25.30
2018-01-06T14:21:41.956Z,23.13
2018-01-06T14:24:09.395Z,21.43
2018-01-06T14:26:36.847Z,23.53
2018-01-06T14:29:04.265Z,24.13
2018-01-06T14:31:33.212Z,22.63
2018-01-06T14:34:00.676Z,26.80
2018-01-06T14:36:28.109Z,28.50
2018-01-06T14:38:55.557Z,27.60
2018-01-06T14:41:23.765Z,34.27
2018-01-06T14:43:51.196Z,30.80
2018-01-06T14:46:18.682Z,29.37
2018-01-06T14:48:46.117Z,29.27
2018-01-06T14:51:13.552Z,28.87
2018-01-06T14:53:41.772Z,28.37
2018-01-06T14:56:09.224Z,28.83
2018-01-06T14:58:36.685Z,29.40
2018-01-06T15:01:04.117Z,30.60
2018-01-06T15:03:31.566Z,32.50
2018-01-06T15:05:59.900Z,42.43
2018-01-06T15:08:27.358Z,40.73
2018-01-06T15:10:54.784Z,33.40
2018-01-06T15:13:22.266Z,34.40
2018-01-06T15:15:49.705Z,33.57
2018-01-06T15:18:17.160Z,34.33
2018-01-06T15:20:44.592Z,32.70
2018-01-06T15:23:12.072Z,35.07
2018-01-06T15:25:39.528Z,33.77
2018-01-06T15:28:07.043Z,35.10
2018-01-06T15:30:34.420Z,33.07
2018-01-06T15:33:01.864Z,34.13
2018-01-06T15:35:30.081Z,34.70
2018-01-06T15:37:57.539Z,34.03
2018-01-06T15:40:24.992Z,33.27
2018-01-06T15:42:52.428Z,31.57
2018-01-06T15:45:19.864Z,31.77
2018-01-06T15:47:48.073Z,29.10
2018-01-06T15:50:15.504Z,29.97
2018-01-06T15:52:42.996Z,31.10
2018-01-06T15:55:10.447Z,32.63
2018-01-06T15:57:37.881Z,36.10
2018-01-06T16:00:05.369Z,27.70
2018-01-06T16:02:32.811Z,29.10
2018-01-06T16:05:00.242Z,26.77
2018-01-06T16:07:28.442Z,27.20
2018-01-06T16:09:55.885Z,29.93
2018-01-06T16:12:23.387Z,28.23
2018-01-06T16:14:50.825Z,23.87
2018-01-06T16:17:18.272Z,23.07
2018-01-06T16:19:46.614Z,24.27
2018-01-06T16:22:14.215Z,25.57
2018-01-06T16:24:41.786Z,24.07
2018-01-06T16:27:09.236Z,21.17
2018-01-06T16:29:36.668Z,19.17
2018-01-06T16:32:04.120Z,18.17
2018-01-06T16:34:31.560Z,18.63
2018-01-06T16:36:59.757Z,19.70
2018-01-06T16:39:27.204Z,11.73
2018-01-06T16:41:55.429Z,17.93
2018-01-06T16:44:22.863Z,10.90
2018-01-06T16:46:50.337Z,9.77
2018-01-06T16:49:17.760Z,7.30
2018-01-06T16:51:45.192Z,9.40
2018-01-06T16:54:13.408Z,9.73
2018-01-06T16:56:40.833Z,8.57
2018-01-06T16:59:09.051Z,6.37
2018-01-06T17:01:36.495Z,6.30
2018-01-06T17:04:03.971Z,5.90
2018-01-06T17:06:31.389Z,5.87
2018-01-06T17:08:58.848Z,5.50
2018-01-06T17:11:26.308Z,5.90
2018-01-06T17:13:53.793Z,5.90
2018-01-06T17:16:21.233Z,6.37
2018-01-06T17:18:48.660Z,5.23
2018-01-06T17:21:16.869Z,5.80
2018-01-06T17:23:44.337Z,6.10
2018-01-06T17:26:11.774Z,5.90
2018-01-06T17:28:39.197Z,7.17
2018-01-06T17:31:07.743Z,8.33
2018-01-06T17:33:35.173Z,6.40
2018-01-06T17:36:02.630Z,7.23
2018-01-06T17:38:30.053Z,5.97
2018-01-06T17:40:58.286Z,3.77
2018-01-06T17:43:25.712Z,4.70
2018-01-06T17:45:53.144Z,4.53
2018-01-06T17:48:21.370Z,3.70
2018-01-06T17:50:48.798Z,4.07
2018-01-06T17:53:16.284Z,4.40
2018-01-06T17:55:43.713Z,4.50
2018-01-06T17:58:11.195Z,5.95
2018-01-06T18:00:38.644Z,6.77
2018-01-06T18:03:06.068Z,6.40
2018-01-06T18:05:34.281Z,5.27
2018-01-06T18:08:01.730Z,7.03
2018-01-06T18:10:29.153Z,6.43
2018-01-06T18:12:57.361Z,6.13
2018-01-06T18:15:24.826Z,6.60
2018-01-06T18:17:52.297Z,7.07
2018-01-06T18:20:19.731Z,5.93
2018-01-06T18:22:47.172Z,8.10
2018-01-06T18:25:14.688Z,7.70
2018-01-06T18:27:42.942Z,8.00
2018-01-06T18:30:10.386Z,8.63
2018-01-06T18:32:37.817Z,8.10
2018-01-06T18:35:05.307Z,7.53
2018-01-06T18:37:32.751Z,7.43
2018-01-06T18:40:00.177Z,8.17
2018-01-06T18:42:28.383Z,6.67
2018-01-06T18:44:55.849Z,8.27
2018-01-06T18:47:23.288Z,7.97
2018-01-06T18:49:50.715Z,7.67
2018-01-06T18:52:18.926Z,8.07
2018-01-06T18:54:46.401Z,8.67
2018-01-06T18:57:13.831Z,9.23
2018-01-06T18:59:41.312Z,7.87
2018-01-06T19:02:09.462Z,8.37
2018-01-06T19:04:36.890Z,9.30
2018-01-06T19:07:05.103Z,9.30
2018-01-06T19:09:32.533Z,8.40
2018-01-06T19:12:00.760Z,8.10
2018-01-06T19:14:28.305Z,7.60
2018-01-06T19:16:55.764Z,8.13
2018-01-06T19:19:23.200Z,9.03
2018-01-06T19:21:50.625Z,9.50
2018-01-06T19:24:18.857Z,10.03
2018-01-06T19:26:46.296Z,8.63
2018-01-06T19:29:13.741Z,9.83
2018-01-06T19:31:41.220Z,7.70
2018-01-06T19:34:08.691Z,7.20
2018-01-06T19:36:36.132Z,7.67
2018-01-06T19:39:03.565Z,7.37
2018-01-06T19:41:31.054Z,6.93
2018-01-06T19:43:58.510Z,6.53
2018-01-06T19:46:25.973Z,6.93
2018-01-06T19:48:53.407Z,6.87
2018-01-06T19:51:20.841Z,8.13
2018-01-06T19:53:49.031Z,8.30
2018-01-06T19:56:16.500Z,8.00
2018-01-06T19:58:43.925Z,9.70
2018-01-06T20:01:12.127Z,6.70
2018-01-06T20:03:39.545Z,6.67
2018-01-06T20:06:07.745Z,6.83
2018-01-06T20:08:35.237Z,7.07
2018-01-06T20:11:02.689Z,6.80
2018-01-06T20:13:30.093Z,6.17
2018-01-06T20:15:58.284Z,6.10
2018-01-06T20:18:25.713Z,5.20
2018-01-06T20:20:53.172Z,4.67
2018-01-06T20:23:20.589Z,4.73
2018-01-06T20:25:48.036Z,4.53
2018-01-06T20:28:15.469Z,3.60
2018-01-06T20:30:42.905Z,4.20
2018-01-06T20:33:11.104Z,3.90
2018-01-06T20:35:38.545Z,5.43
2018-01-06T20:38:06.764Z,4.87
2018-01-06T20:40:34.200Z,4.30
2018-01-06T20:43:01.642Z,4.30
2018-01-06T20:45:29.848Z,4.47
2018-01-06T20:47:57.278Z,3.50
2018-01-06T20:50:24.785Z,4.40
2018-01-06T20:52:52.220Z,3.83
2018-01-06T20:55:19.683Z,4.40
2018-01-06T20:57:47.127Z,4.77
2018-01-06T21:00:14.601Z,3.90
2018-01-06T21:02:42.033Z,3.80
2018-01-06T21:05:09.528Z,5.00
2018-01-06T21:07:36.946Z,5.63
2018-01-06T21:10:04.437Z,5.13
2018-01-06T21:12:31.881Z,4.60
2018-01-06T21:14:59.341Z,4.57
2018-01-06T21:17:26.844Z,4.30
2018-01-06T21:19:54.301Z,4.90
2018-01-06T21:22:22.529Z,4.97
2018-01-06T21:24:50.132Z,4.93
2018-01-06T21:27:17.644Z,5.00
2018-01-06T21:29:45.116Z,4.90
2018-01-06T21:32:12.536Z,4.80
2018-01-06T21:34:39.995Z,4.70
2018-01-06T21:37:07.467Z,5.07
2018-01-06T21:39:34.895Z,5.80
2018-01-06T21:42:03.118Z,4.80
2018-01-06T21:44:30.575Z,4.73
2018-01-06T21:46:58.021Z,5.20
2018-01-06T21:49:25.461Z,6.13
2018-01-06T21:51:52.881Z,5.80
2018-01-06T21:54:21.114Z,5.40
2018-01-06T21:56:48.577Z,5.77
2018-01-06T21:59:16.009Z,5.70
2018-01-06T22:01:43.432Z,6.10
2018-01-06T22:04:11.668Z,6.00
2018-01-06T22:06:39.097Z,5.83
2018-01-06T22:09:06.663Z,5.93
2018-01-06T22:11:34.080Z,7.33
2018-01-06T22:14:02.309Z,6.73
2018-01-06T22:16:29.781Z,6.37
2018-01-06T22:18:57.223Z,6.97
2018-01-06T22:21:24.660Z,7.33
2018-01-06T22:23:52.073Z,6.43
2018-01-06T22:26:19.596Z,8.00
2018-01-06T22:28:47.052Z,7.30
2018-01-06T22:31:14.545Z,7.20
2018-01-06T22:33:41.980Z,7.40
2018-01-06T22:36:09.440Z,7.50
2018-01-06T22:38:36.970Z,6.43
2018-01-06T22:41:04.463Z,7.03
2018-01-06T22:43:31.868Z,7.20
2018-01-06T22:45:59.304Z,7.43
2018-01-06T22:48:27.541Z,8.27
2018-01-06T22:50:55.048Z,7.53
2018-01-06T22:53:23.244Z,7.53
2018-01-06T22:55:50.740Z,7.70
2018-01-06T22:58:18.281Z,7.63
2018-01-06T23:00:49.717Z,8.20
2018-01-06T23:03:17.188Z,8.23
2018-01-06T23:05:44.633Z,8.47
2018-01-06T23:08:12.101Z,8.37
2018-01-06T23:10:39.556Z,7.90
2018-01-06T23:13:07.626Z,7.97
2018-01-06T23:15:35.115Z,7.83
2018-01-06T23:18:03.336Z,9.07
2018-01-06T23:20:30.760Z,8.70
2018-01-06T23:22:58.952Z,7.83
2018-01-06T23:25:26.457Z,8.23
2018-01-06T23:27:53.916Z,8.80
2018-01-06T23:30:21.345Z,7.70
2018-01-06T23:32:48.790Z,7.50
2018-01-06T23:35:16.216Z,8.53
2018-01-06T23:37:43.737Z,8.33
2018-01-06T23:40:11.184Z,8.70
2018-01-06T23:42:38.622Z,7.87
2018-01-06T23:45:06.052Z,8.40
2018-01-06T23:47:34.284Z,8.67
2018-01-06T23:50:01.738Z,8.57
2018-01-06T23:52:29.197Z,8.07
2018-01-06T23:54:56.672Z,8.23
2018-01-06T23:57:24.129Z,9.30
2018-01-06T23:59:51.665Z,8.53
